Time;durP1;ratioP1;P1;durP2;ratioP2;P2;SDS_P1;SDS_P2;PMS_P1;PMS_P2;Temp;Humidity;BMP_temperature;BMP_pressure;BME280_temperature;BME280_humidity;BME280_pressure;Samples;Min_cycle;Max_cycle;Signal;HPM_P1;HPM_P2
2021/07/12 00:00:08;;;;;;;2.35;1.13;;;16.50;99.90;;;;;;4996840;28;20498;-84
2021/07/12 00:02:34;;;;;;;2.78;1.00;;;16.70;99.90;;;;;;4979246;28;20486;-84
2021/07/12 00:04:59;;;;;;;4.68;1.20;;;16.80;99.90;;;;;;4979258;28;20037;-83
2021/07/12 00:07:25;;;;;;;1.60;1.10;;;16.90;99.90;;;;;;4996737;28;20034;-83
2021/07/12 00:09:51;;;;;;;2.40;1.13;;;16.80;99.90;;;;;;4979250;28;20069;-84
2021/07/12 00:12:18;;;;;;;2.38;1.23;;;16.70;99.90;;;;;;4979257;28;20023;-84
2021/07/12 00:14:44;;;;;;;3.35;1.20;;;16.40;99.90;;;;;;4979046;28;20094;-84
2021/07/12 00:17:10;;;;;;;4.18;0.90;;;16.40;99.90;;;;;;4979129;28;20046;-84
2021/07/12 00:19:36;;;;;;;4.60;1.70;;;16.30;99.90;;;;;;4979044;28;20029;-83
2021/07/12 00:22:02;;;;;;;7.13;3.00;;;16.20;99.90;;;;;;4978988;28;20478;-83
2021/07/12 00:24:28;;;;;;;6.90;1.50;;;16.00;99.90;;;;;;4978930;28;20548;-83
2021/07/12 00:26:54;;;;;;;4.15;1.10;;;15.90;99.90;;;;;;4979022;28;20026;-84
2021/07/12 00:29:19;;;;;;;7.25;1.38;;;16.20;99.90;;;;;;4978845;28;20037;-84
2021/07/12 00:31:45;;;;;;;1.85;0.95;;;16.20;99.90;;;;;;4996309;28;20026;-84
2021/07/12 00:34:11;;;;;;;4.85;1.30;;;16.40;99.90;;;;;;4978744;28;20065;-84
2021/07/12 00:36:37;;;;;;;2.28;1.35;;;16.30;99.90;;;;;;4995381;28;20367;-84
2021/07/12 00:39:04;;;;;;;3.05;1.13;;;16.10;99.90;;;;;;4978678;28;20072;-84
2021/07/12 00:41:30;;;;;;;2.50;1.20;;;16.10;99.90;;;;;;4978653;28;20082;-84
2021/07/12 00:43:55;;;;;;;2.70;1.10;;;16.10;99.90;;;;;;4978813;28;20489;-84
2021/07/12 00:46:21;;;;;;;1.83;1.00;;;16.10;99.90;;;;;;4996039;28;20101;-83
2021/07/12 00:48:47;;;;;;;7.13;1.58;;;16.30;99.90;;;;;;4996044;28;20026;-83
2021/07/12 00:51:13;;;;;;;2.63;1.05;;;16.20;99.90;;;;;;4978490;28;20034;-83
2021/07/12 00:53:39;;;;;;;5.40;1.30;;;16.30;99.90;;;;;;4978441;28;20030;-83
2021/07/12 00:56:05;;;;;;;5.38;1.52;;;16.20;99.90;;;;;;4978380;28;20117;-84
2021/07/12 00:58:31;;;;;;;2.47;1.30;;;16.30;99.90;;;;;;4978386;28;20030;-84
2021/07/12 01:01:00;;;;;;;3.97;1.20;;;16.20;99.90;;;;;;4978115;28;20022;-84
2021/07/12 01:03:27;;;;;;;1.45;1.10;;;16.00;99.90;;;;;;4978269;28;20088;-83
2021/07/12 01:05:54;;;;;;;5.63;1.40;;;16.00;99.90;;;;;;4978189;28;20486;-84
2021/07/12 01:08:20;;;;;;;2.97;1.30;;;16.10;99.90;;;;;;4978194;28;20036;-83
2021/07/12 01:11:10;;;;;;;3.42;1.70;;;16.20;99.90;;;;;;4978143;28;20437;-84
2021/07/12 01:13:44;;;;;;;5.35;1.70;;;16.10;99.90;;;;;;4994840;28;20049;-84
2021/07/12 01:16:31;;;;;;;3.00;1.30;;;15.70;99.90;;;;;;4977962;28;20026;-83
2021/07/12 01:19:15;;;;;;;3.35;1.40;;;15.90;99.90;;;;;;4977983;28;20022;-84
2021/07/12 01:21:52;;;;;;;5.85;2.10;;;16.00;99.90;;;;;;4977968;28;20026;-83
2021/07/12 01:24:37;;;;;;;4.13;2.00;;;15.90;99.90;;;;;;4977898;28;20030;-84
2021/07/12 01:27:09;;;;;;;6.20;1.60;;;15.90;99.90;;;;;;4977827;28;20031;-83
2021/07/12 01:30:12;;;;;;;2.78;1.55;;;16.00;99.90;;;;;;4977774;28;20390;-83
2021/07/12 01:32:47;;;;;;;3.95;1.63;;;16.00;99.90;;;;;;4977689;28;20014;-84
2021/07/12 01:35:25;;;;;;;8.32;1.60;;;15.90;99.90;;;;;;4995058;28;20088;-83
2021/07/12 01:38:17;;;;;;;1.80;1.40;;;15.70;99.90;;;;;;4977614;28;20057;-83
2021/07/12 01:41:04;;;;;;;3.58;1.65;;;15.80;99.90;;;;;;4948546;28;20506;-83
2021/07/12 01:43:51;;;;;;;2.30;1.35;;;16.00;99.90;;;;;;4995005;28;20027;-83
2021/07/12 01:46:27;;;;;;;5.28;1.60;;;16.20;99.90;;;;;;4977503;28;20550;-83
2021/07/12 01:49:13;;;;;;;2.97;1.40;;;15.90;99.90;;;;;;4977374;28;20035;-83
2021/07/12 01:51:44;;;;;;;2.65;1.60;;;15.90;99.90;;;;;;4977384;28;20069;-84
2021/07/12 01:54:18;;;;;;;6.35;1.88;;;15.90;99.90;;;;;;4994737;28;20030;-83
2021/07/12 01:56:53;;;;;;;4.57;1.60;;;16.00;99.90;;;;;;4977327;28;20112;-83
2021/07/12 01:59:29;;;;;;;3.80;1.50;;;16.00;99.90;;;;;;4977154;28;20024;-83
2021/07/12 02:01:56;;;;;;;6.03;2.00;;;16.20;99.90;;;;;;4977203;28;20045;-83
2021/07/12 02:04:28;;;;;;;2.88;1.80;;;16.10;99.90;;;;;;4994585;28;20030;-83
2021/07/12 02:06:56;;;;;;;2.60;1.30;;;16.00;99.90;;;;;;4994573;28;20106;-83
2021/07/12 02:09:24;;;;;;;3.22;1.60;;;15.80;99.90;;;;;;4977063;28;20061;-83
2021/07/12 02:11:50;;;;;;;4.75;1.67;;;16.00;99.90;;;;;;4976992;28;20027;-83
2021/07/12 02:14:19;;;;;;;4.40;1.50;;;15.80;99.90;;;;;;4976860;28;20033;-83
2021/07/12 02:16:47;;;;;;;3.70;1.60;;;15.90;99.90;;;;;;4976944;28;20027;-83
2021/07/12 02:19:14;;;;;;;6.07;1.73;;;15.90;99.90;;;;;;4976925;28;20026;-83
2021/07/12 02:21:42;;;;;;;2.17;1.42;;;15.80;99.90;;;;;;4994304;28;20026;-83
2021/07/12 02:24:10;;;;;;;4.88;1.52;;;15.80;99.90;;;;;;4976805;28;20023;-84
2021/07/12 02:26:36;;;;;;;7.60;1.50;;;15.80;99.90;;;;;;4977366;28;20505;-83
2021/07/12 02:29:05;;;;;;;5.90;1.80;;;15.80;99.90;;;;;;4976754;28;20022;-83
2021/07/12 02:31:32;;;;;;;5.45;1.52;;;15.80;99.90;;;;;;4976736;28;20481;-83
2021/07/12 02:34:00;;;;;;;9.35;1.60;;;15.90;99.90;;;;;;4976734;28;20561;-83
2021/07/12 02:36:27;;;;;;;3.30;1.55;;;15.80;99.90;;;;;;4994011;28;20022;-84
2021/07/12 02:38:55;;;;;;;4.70;1.30;;;15.50;99.90;;;;;;4976606;28;20482;-83
2021/07/12 02:41:24;;;;;;;6.60;1.80;;;15.30;99.90;;;;;;4976608;28;20026;-83
2021/07/12 02:43:51;;;;;;;4.35;1.60;;;15.50;99.90;;;;;;4976529;28;20474;-84
2021/07/12 02:46:19;;;;;;;3.90;1.75;;;15.50;99.90;;;;;;4976508;28;20034;-84
2021/07/12 02:48:45;;;;;;;5.78;1.80;;;15.40;99.90;;;;;;4993958;28;20391;-84
2021/07/12 02:51:14;;;;;;;8.10;2.17;;;15.50;99.90;;;;;;4993949;28;20413;-84
2021/07/12 02:53:46;;;;;;;5.53;2.03;;;15.60;99.90;;;;;;4976477;28;20490;-83
2021/07/12 02:56:11;;;;;;;4.38;1.40;;;15.60;99.90;;;;;;4993818;28;20564;-84
2021/07/12 02:58:37;;;;;;;4.07;1.67;;;15.50;99.90;;;;;;4994708;28;20019;-84
2021/07/12 03:01:04;;;;;;;6.38;1.88;;;15.70;99.90;;;;;;4982559;28;20026;-83
2021/07/12 03:03:30;;;;;;;1.88;1.20;;;15.80;99.90;;;;;;4982900;28;20486;-83
2021/07/12 03:06:05;;;;;;;6.95;2.00;;;15.50;99.90;;;;;;4982739;28;20088;-84
2021/07/12 03:08:40;;;;;;;2.72;1.60;;;15.20;99.90;;;;;;4982818;28;20093;-84
2021/07/12 03:11:11;;;;;;;6.05;1.88;;;15.30;99.90;;;;;;4983219;28;20523;-83
2021/07/12 03:14:00;;;;;;;2.45;1.60;;;15.50;99.90;;;;;;4982734;28;20030;-83
2021/07/12 03:16:27;;;;;;;2.75;1.75;;;15.30;99.90;;;;;;4982694;28;20022;-83
2021/07/12 03:18:57;;;;;;;5.95;1.50;;;15.40;99.90;;;;;;5000195;28;20022;-84
2021/07/12 03:21:25;;;;;;;2.60;1.42;;;15.20;99.90;;;;;;4982743;28;20031;-83
2021/07/12 03:23:54;;;;;;;4.65;1.73;;;15.00;99.90;;;;;;4982590;28;20056;-83
2021/07/12 03:26:23;;;;;;;6.90;1.40;;;15.20;99.90;;;;;;5000122;28;20026;-84
2021/07/12 03:28:52;;;;;;;2.60;1.20;;;15.30;99.90;;;;;;4983206;28;20026;-83
2021/07/12 03:31:23;;;;;;;7.28;1.90;;;15.30;99.90;;;;;;4983274;28;20030;-83
2021/07/12 03:33:52;;;;;;;3.75;1.40;;;15.40;99.90;;;;;;4983264;28;20030;-83
2021/07/12 03:36:19;;;;;;;2.40;1.50;;;15.60;99.90;;;;;;4983102;28;20026;-83
2021/07/12 03:38:45;;;;;;;4.13;1.65;;;15.60;99.90;;;;;;4983141;28;20022;-83
2021/07/12 03:41:12;;;;;;;7.82;1.60;;;15.50;99.90;;;;;;4983173;28;20532;-83
2021/07/12 03:43:40;;;;;;;2.42;1.30;;;15.50;99.90;;;;;;4983104;28;20141;-83
2021/07/12 03:46:07;;;;;;;1.60;1.30;;;15.50;99.90;;;;;;4983277;28;20109;-83
2021/07/12 03:48:43;;;;;;;3.85;1.40;;;15.70;99.90;;;;;;4982830;28;20034;-83
2021/07/12 03:51:14;;;;;;;2.85;1.42;;;15.80;99.90;;;;;;4982724;28;20077;-83
2021/07/12 03:53:40;;;;;;;1.55;1.15;;;15.70;99.90;;;;;;4982906;28;20121;-84
2021/07/12 03:56:06;;;;;;;6.30;1.33;;;15.70;99.90;;;;;;4983035;28;20058;-83
2021/07/12 03:58:32;;;;;;;3.08;1.67;;;15.30;99.90;;;;;;4983293;28;20033;-83
2021/07/12 04:00:58;;;;;;;4.38;1.30;;;15.30;99.90;;;;;;4982739;28;20035;-83
2021/07/12 04:03:24;;;;;;;9.48;1.60;;;15.20;99.90;;;;;;4983048;28;20034;-83
2021/07/12 04:05:50;;;;;;;3.97;1.50;;;15.20;99.90;;;;;;4982797;28;20069;-83
2021/07/12 04:08:15;;;;;;;5.63;1.45;;;15.00;99.90;;;;;;4982709;28;20027;-83
2021/07/12 04:10:41;;;;;;;4.45;1.55;;;15.00;99.90;;;;;;4981111;28;20122;-83
2021/07/12 04:13:08;;;;;;;2.25;1.17;;;14.80;99.90;;;;;;4979990;28;20339;-83
2021/07/12 04:15:34;;;;;;;6.45;1.30;;;15.00;99.90;;;;;;4979874;28;20406;-83
2021/07/12 04:18:00;;;;;;;3.58;1.60;;;15.10;99.90;;;;;;4979819;28;20050;-83
2021/07/12 04:20:26;;;;;;;4.35;1.40;;;15.00;99.90;;;;;;4997161;28;20029;-84
2021/07/12 04:22:52;;;;;;;7.90;1.42;;;15.10;99.90;;;;;;4979919;28;20022;-83
2021/07/12 04:25:17;;;;;;;4.05;1.60;;;15.20;99.90;;;;;;4997025;28;20029;-83
2021/07/12 04:27:43;;;;;;;4.43;1.52;;;15.40;99.90;;;;;;4979586;28;20117;-83
2021/07/12 04:30:10;;;;;;;2.42;1.30;;;15.50;99.90;;;;;;4979936;28;20566;-83
2021/07/12 04:32:36;;;;;;;2.90;1.35;;;15.50;99.90;;;;;;4997069;28;20026;-83
2021/07/12 04:35:03;;;;;;;3.63;1.05;;;15.30;99.90;;;;;;4979628;28;20022;-83
2021/07/12 04:37:29;;;;;;;3.78;1.40;;;15.30;99.90;;;;;;4979546;28;20030;-83
2021/07/12 04:39:55;;;;;;;1.45;1.13;;;15.40;99.90;;;;;;4997345;28;20076;-83
2021/07/12 04:42:20;;;;;;;3.53;1.55;;;15.60;99.90;;;;;;4979286;28;20026;-83
2021/07/12 04:44:46;;;;;;;4.18;1.38;;;15.60;99.90;;;;;;4979605;28;20080;-83
2021/07/12 04:47:12;;;;;;;4.93;1.33;;;15.60;99.90;;;;;;4979743;28;20069;-83
2021/07/12 04:49:38;;;;;;;3.80;1.30;;;15.60;99.90;;;;;;4979247;28;20026;-83
2021/07/12 04:52:04;;;;;;;7.70;1.50;;;15.90;99.90;;;;;;4979198;28;20215;-83
2021/07/12 04:54:30;;;;;;;2.45;1.40;;;15.80;99.90;;;;;;4996578;28;20474;-82
2021/07/12 04:56:56;;;;;;;5.43;1.30;;;15.70;99.90;;;;;;4979101;28;20041;-83
2021/07/12 04:59:28;;;;;;;4.93;1.50;;;15.70;99.90;;;;;;4979240;28;20049;-83
2021/07/12 05:01:55;;;;;;;7.38;1.40;;;15.70;99.90;;;;;;4978973;28;20054;-83
2021/07/12 05:04:21;;;;;;;4.20;1.52;;;15.80;99.90;;;;;;4979349;28;20023;-83
2021/07/12 05:06:47;;;;;;;1.92;1.20;;;15.80;99.90;;;;;;4979395;28;20026;-84
2021/07/12 05:09:13;;;;;;;4.07;1.17;;;15.70;99.90;;;;;;4979242;28;20034;-84
2021/07/12 05:11:39;;;;;;;4.30;1.50;;;15.60;99.90;;;;;;4996531;28;20505;-83
2021/07/12 05:14:06;;;;;;;6.07;1.33;;;15.50;99.90;;;;;;4979149;28;20026;-83
2021/07/12 05:16:33;;;;;;;5.47;1.38;;;15.60;99.90;;;;;;4978616;28;20037;-83
2021/07/12 05:18:59;;;;;;;7.50;1.40;;;15.70;99.90;;;;;;4978980;28;20474;-84
2021/07/12 05:21:25;;;;;;;4.78;1.40;;;15.70;99.90;;;;;;4978681;28;20026;-83
2021/07/12 05:23:51;;;;;;;4.55;1.27;;;15.70;99.90;;;;;;4978702;28;20030;-83
2021/07/12 05:26:17;;;;;;;4.32;1.40;;;15.70;99.90;;;;;;4979024;28;20026;-83
2021/07/12 05:28:42;;;;;;;4.38;1.10;;;15.60;99.90;;;;;;4979301;28;20031;-83
2021/07/12 05:31:08;;;;;;;6.28;1.42;;;15.70;99.90;;;;;;4979926;28;20026;-84
2021/07/12 05:33:35;;;;;;;3.85;1.30;;;15.80;99.90;;;;;;4978415;28;20053;-84
2021/07/12 05:36:00;;;;;;;3.72;1.58;;;15.80;99.90;;;;;;4979085;28;20026;-83
2021/07/12 05:38:26;;;;;;;3.33;1.27;;;15.80;99.90;;;;;;4996299;28;20026;-84
2021/07/12 05:40:52;;;;;;;1.70;1.38;;;15.90;99.90;;;;;;4978881;28;20100;-83
2021/07/12 05:43:17;;;;;;;5.05;1.30;;;16.00;99.90;;;;;;4979141;28;20470;-83
2021/07/12 05:45:43;;;;;;;5.10;1.30;;;16.10;99.90;;;;;;4978789;28;20033;-84
2021/07/12 05:48:09;;;;;;;3.28;1.40;;;16.00;99.90;;;;;;4978631;28;20375;-83
2021/07/12 05:50:36;;;;;;;2.08;1.30;;;16.10;99.90;;;;;;4977881;28;20478;-83
2021/07/12 05:53:02;;;;;;;1.58;1.20;;;16.30;99.90;;;;;;4978721;28;20060;-84
2021/07/12 05:55:27;;;;;;;3.25;1.25;;;16.40;99.90;;;;;;4978539;28;20057;-84
2021/07/12 05:57:53;;;;;;;4.88;1.52;;;16.50;99.90;;;;;;4995456;28;20057;-84
2021/07/12 06:00:19;;;;;;;3.35;1.40;;;16.60;99.90;;;;;;4978606;28;20022;-83
2021/07/12 06:02:46;;;;;;;3.22;1.30;;;16.60;99.90;;;;;;4978038;28;20100;-84
2021/07/12 06:05:13;;;;;;;3.22;1.48;;;16.70;99.90;;;;;;4977898;28;20035;-83
2021/07/12 06:07:39;;;;;;;4.55;1.73;;;16.70;99.90;;;;;;4995143;28;20026;-84
2021/07/12 06:10:07;;;;;;;4.80;1.20;;;16.70;99.90;;;;;;4978070;28;20036;-83
2021/07/12 06:12:33;;;;;;;4.00;1.20;;;16.70;99.90;;;;;;4978192;28;20030;-84
2021/07/12 06:14:59;;;;;;;6.22;1.48;;;16.90;99.90;;;;;;4995230;28;20029;-84
2021/07/12 06:17:24;;;;;;;2.85;1.33;;;17.10;99.90;;;;;;4978233;28;20026;-84
2021/07/12 06:19:50;;;;;;;1.63;1.42;;;17.30;99.90;;;;;;4978029;28;20049;-83
2021/07/12 06:22:16;;;;;;;4.43;1.35;;;17.20;99.90;;;;;;4977527;28;20072;-83
2021/07/12 06:24:42;;;;;;;5.13;1.20;;;17.30;99.90;;;;;;4977878;28;20023;-84
2021/07/12 06:27:07;;;;;;;3.58;1.30;;;17.50;99.90;;;;;;4977955;28;20117;-84
2021/07/12 06:29:33;;;;;;;3.75;1.30;;;17.70;99.90;;;;;;4978192;28;20482;-84
2021/07/12 06:31:59;;;;;;;2.47;1.38;;;17.80;99.90;;;;;;4977716;28;20113;-84
2021/07/12 06:34:25;;;;;;;7.78;1.58;;;17.90;99.90;;;;;;4994451;28;20023;-84
2021/07/12 06:36:51;;;;;;;4.07;1.45;;;18.00;99.90;;;;;;4977578;28;20482;-83
2021/07/12 06:39:17;;;;;;;3.65;1.55;;;18.10;99.90;;;;;;4977084;28;20018;-84
2021/07/12 06:41:43;;;;;;;3.38;1.38;;;18.20;99.90;;;;;;4977400;28;20033;-82
2021/07/12 06:44:09;;;;;;;3.90;1.42;;;18.30;99.90;;;;;;4976980;28;20474;-82
2021/07/12 06:46:35;;;;;;;8.73;1.73;;;18.30;99.90;;;;;;4977195;28;20023;-82
2021/07/12 06:49:01;;;;;;;3.35;1.20;;;18.40;99.90;;;;;;4994503;28;20034;-82
2021/07/12 06:51:26;;;;;;;6.47;1.65;;;18.70;99.90;;;;;;4977026;28;20026;-82
2021/07/12 06:53:52;;;;;;;1.60;1.20;;;18.70;99.90;;;;;;4994461;28;20487;-82
2021/07/12 06:56:18;;;;;;;6.10;1.30;;;18.60;99.90;;;;;;4976559;28;20038;-82
2021/07/12 06:58:44;;;;;;;8.30;1.60;;;18.60;99.90;;;;;;4977076;28;20069;-83
2021/07/12 07:01:10;;;;;;;4.72;1.45;;;18.60;99.90;;;;;;4994464;28;20014;-83
2021/07/12 07:03:35;;;;;;;10.23;1.88;;;18.60;99.90;;;;;;4976804;28;20050;-82
2021/07/12 07:06:01;;;;;;;16.55;2.03;;;18.60;99.90;;;;;;4977117;28;20026;-83
2021/07/12 07:08:27;;;;;;;18.40;2.13;;;18.60;99.90;;;;;;4994947;28;20025;-82
2021/07/12 07:10:53;;;;;;;7.45;2.33;;;18.70;99.90;;;;;;4976613;28;20092;-82
2021/07/12 07:13:18;;;;;;;14.10;2.25;;;18.80;99.90;;;;;;4976791;28;20066;-83
2021/07/12 07:15:45;;;;;;;11.13;2.15;;;18.90;99.90;;;;;;4976475;28;20081;-83
2021/07/12 07:18:11;;;;;;;10.82;2.42;;;18.90;99.90;;;;;;4994239;28;20014;-83
2021/07/12 07:20:37;;;;;;;12.68;2.33;;;19.10;99.90;;;;;;4976698;28;20033;-82
2021/07/12 07:23:04;;;;;;;8.38;1.95;;;19.30;99.90;;;;;;4976841;28;20065;-83
2021/07/12 07:25:30;;;;;;;10.77;1.90;;;19.50;99.90;;;;;;4994003;28;20034;-82
2021/07/12 07:27:56;;;;;;;4.95;1.73;;;19.60;99.90;;;;;;4993885;28;20022;-82
2021/07/12 07:30:21;;;;;;;7.10;2.22;;;19.70;99.90;;;;;;4976577;28;20068;-83
2021/07/12 07:32:47;;;;;;;6.63;1.95;;;19.70;99.90;;;;;;4976650;28;20026;-82
2021/07/12 07:35:16;;;;;;;7.32;1.67;;;19.80;99.90;;;;;;4993840;28;20035;-83
2021/07/12 07:37:42;;;;;;;4.13;1.60;;;19.80;99.90;;;;;;4994053;28;20019;-83
2021/07/12 07:40:09;;;;;;;2.80;1.42;;;19.80;99.90;;;;;;4976494;28;20025;-82
2021/07/12 07:42:36;;;;;;;4.88;1.60;;;19.90;99.90;;;;;;4976420;28;20026;-81
2021/07/12 07:45:02;;;;;;;5.95;1.95;;;19.70;99.90;;;;;;4976926;28;20109;-82
2021/07/12 07:47:28;;;;;;;4.32;1.40;;;19.80;99.90;;;;;;4979995;28;20033;-81
2021/07/12 07:49:54;;;;;;;4.88;1.58;;;19.90;99.90;;;;;;4980117;28;20031;-82
2021/07/12 07:52:20;;;;;;;5.68;1.52;;;19.90;99.90;;;;;;4979932;28;20117;-81
2021/07/12 07:54:46;;;;;;;2.90;1.25;;;20.00;99.90;;;;;;4997661;28;20026;-82
2021/07/12 07:57:11;;;;;;;1.83;1.27;;;20.10;99.90;;;;;;4979749;28;20033;-81
2021/07/12 07:59:37;;;;;;;2.58;1.38;;;20.20;99.90;;;;;;4979701;28;20474;-81
2021/07/12 08:02:03;;;;;;;6.30;1.27;;;20.30;99.90;;;;;;4979443;28;20054;-82
2021/07/12 08:04:29;;;;;;;7.43;1.70;;;20.40;99.90;;;;;;4979674;28;20022;-81
2021/07/12 08:06:55;;;;;;;2.22;1.42;;;20.50;99.90;;;;;;4997434;28;20023;-81
2021/07/12 08:09:21;;;;;;;5.65;1.13;;;20.60;99.90;;;;;;4979631;28;20022;-81
2021/07/12 08:11:48;;;;;;;3.83;1.23;;;20.70;99.90;;;;;;4997016;28;20030;-81
2021/07/12 08:14:14;;;;;;;2.20;1.08;;;20.80;99.90;;;;;;4979504;28;20084;-82
2021/07/12 08:16:40;;;;;;;3.28;1.00;;;20.90;99.90;;;;;;4979407;28;20054;-81
2021/07/12 08:19:06;;;;;;;2.38;1.30;;;21.00;99.90;;;;;;4996861;28;20053;-82
2021/07/12 08:21:32;;;;;;;1.83;1.05;;;21.00;99.90;;;;;;4979502;28;20023;-81
2021/07/12 08:23:57;;;;;;;2.25;1.05;;;21.10;99.90;;;;;;4996637;28;20026;-81
2021/07/12 08:26:23;;;;;;;1.40;1.10;;;21.30;99.90;;;;;;4979051;28;20041;-82
2021/07/12 08:28:49;;;;;;;4.10;1.10;;;21.30;99.90;;;;;;4978966;28;20157;-81
2021/07/12 08:31:16;;;;;;;4.18;1.20;;;21.40;99.90;;;;;;4996760;28;20098;-81
2021/07/12 08:33:42;;;;;;;1.60;1.10;;;21.50;99.90;;;;;;4996453;28;20029;-81
2021/07/12 08:36:08;;;;;;;3.40;1.00;;;21.60;99.90;;;;;;4978775;28;20027;-81
2021/07/12 08:38:34;;;;;;;1.67;1.02;;;21.60;99.90;;;;;;4978895;28;20158;-81
2021/07/12 08:41:00;;;;;;;3.33;1.33;;;21.70;99.90;;;;;;4996283;28;20026;-82
2021/07/12 08:43:26;;;;;;;2.72;1.20;;;21.80;99.90;;;;;;4979022;28;20030;-81
2021/07/12 08:45:52;;;;;;;2.08;1.10;;;21.80;99.90;;;;;;4978991;28;20394;-81
2021/07/12 08:48:18;;;;;;;5.35;1.42;;;21.90;99.90;;;;;;4996467;28;20057;-81
2021/07/12 08:50:45;;;;;;;5.13;1.13;;;22.10;99.90;;;;;;4978869;28;20034;-81
2021/07/12 08:53:15;;;;;;;2.92;1.00;;;22.30;99.90;;;;;;4978647;28;20121;-81
2021/07/12 08:55:45;;;;;;;3.85;1.27;;;22.30;99.90;;;;;;4978832;28;20182;-82
2021/07/12 08:58:12;;;;;;;2.65;1.20;;;22.30;99.90;;;;;;4978058;28;20033;-81
2021/07/12 09:00:47;;;;;;;3.55;1.20;;;22.40;99.90;;;;;;4996080;28;20018;-82
2021/07/12 09:03:34;;;;;;;1.65;1.10;;;22.60;99.90;;;;;;4978474;28;20502;-82
2021/07/12 09:06:05;;;;;;;3.35;1.20;;;22.60;99.90;;;;;;4978722;28;20486;-83
2021/07/12 09:08:36;;;;;;;1.23;0.93;;;22.80;99.90;;;;;;4978773;28;20030;-83
2021/07/12 09:11:13;;;;;;;5.00;1.15;;;22.90;99.90;;;;;;4978816;28;20030;-83
2021/07/12 09:13:52;;;;;;;2.28;1.30;;;23.00;99.90;;;;;;4996210;28;20033;-83
2021/07/12 09:16:29;;;;;;;5.43;1.42;;;23.10;99.90;;;;;;4978442;28;20505;-84
2021/07/12 09:19:03;;;;;;;5.55;1.38;;;23.20;99.90;;;;;;4978404;28;20045;-83
2021/07/12 09:21:37;;;;;;;4.13;1.23;;;23.30;99.90;;;;;;4978247;28;20124;-83
2021/07/12 09:24:16;;;;;;;9.40;1.42;;;23.50;99.90;;;;;;4978363;28;20804;-83
2021/07/12 09:26:43;;;;;;;2.22;1.27;;;23.60;99.90;;;;;;4978184;28;20053;-83
2021/07/12 09:29:26;;;;;;;2.08;1.20;;;23.60;99.90;;;;;;4995219;28;20030;-83
2021/07/12 09:31:53;;;;;;;7.18;1.20;;;23.60;99.90;;;;;;4977812;28;20142;-83
2021/07/12 09:34:20;;;;;;;2.35;1.20;;;23.90;99.90;;;;;;4995083;28;20031;-83
2021/07/12 09:36:47;;;;;;;26.85;2.30;;;24.20;99.90;;;;;;4977715;28;20026;-82
2021/07/12 09:39:17;;;;;;;6.10;1.52;;;24.30;99.90;;;;;;4977619;28;20504;-82
2021/07/12 09:41:47;;;;;;;3.35;1.30;;;24.70;99.90;;;;;;4995045;28;20022;-82
2021/07/12 09:44:12;;;;;;;7.00;1.50;;;24.90;99.90;;;;;;4995059;28;20018;-83
2021/07/12 09:46:38;;;;;;;7.22;1.70;;;24.90;99.90;;;;;;4994957;28;20033;-83
2021/07/12 09:49:11;;;;;;;5.05;1.15;;;24.60;99.90;;;;;;4977449;28;20481;-83
2021/07/12 09:51:38;;;;;;;3.53;1.20;;;24.40;99.90;;;;;;4977457;28;20402;-83
2021/07/12 09:54:23;;;;;;;3.38;1.20;;;24.60;99.90;;;;;;4994823;28;20034;-83
2021/07/12 09:56:51;;;;;;;7.43;1.15;;;24.60;99.90;;;;;;4976698;28;20116;-83
2021/07/12 09:59:18;;;;;;;2.90;1.10;;;24.90;99.90;;;;;;4977232;28;20366;-83
2021/07/12 10:01:55;;;;;;;2.33;1.10;;;25.30;99.90;;;;;;4977056;28;20041;-83
2021/07/12 10:04:25;;;;;;;2.53;1.02;;;25.20;99.90;;;;;;4994631;28;20036;-83
2021/07/12 10:06:52;;;;;;;2.53;1.10;;;25.30;99.90;;;;;;4977187;28;20385;-83
2021/07/12 10:09:22;;;;;;;4.38;1.30;;;24.90;99.90;;;;;;4976130;28;20113;-83
2021/07/12 10:11:50;;;;;;;4.57;1.20;;;24.90;99.90;;;;;;4977629;28;20421;-83
2021/07/12 10:14:17;;;;;;;6.85;1.17;;;24.90;99.90;;;;;;4994727;28;20018;-83
2021/07/12 10:16:43;;;;;;;6.72;1.10;;;24.90;99.90;;;;;;4976899;28;20077;-84
2021/07/12 10:19:08;;;;;;;1.65;1.10;;;24.90;99.90;;;;;;4977173;28;20474;-83
2021/07/12 10:21:45;;;;;;;1.63;1.00;;;24.90;99.90;;;;;;4976973;28;20037;-83
2021/07/12 10:24:11;;;;;;;5.45;1.20;;;25.20;99.90;;;;;;4976851;28;20030;-83
2021/07/12 10:26:45;;;;;;;1.38;1.17;;;25.50;99.90;;;;;;4976715;28;20030;-83
2021/07/12 10:29:13;;;;;;;2.22;1.02;;;25.50;99.90;;;;;;4994224;28;20022;-83
2021/07/12 10:31:56;;;;;;;3.65;1.00;;;25.50;99.90;;;;;;4976721;28;20026;-83
2021/07/12 10:34:36;;;;;;;2.78;1.02;;;25.60;99.90;;;;;;4994071;28;20034;-83
2021/07/12 10:37:22;;;;;;;1.50;1.20;;;25.70;99.90;;;;;;4976734;28;20046;-83
2021/07/12 10:40:04;;;;;;;3.13;0.93;;;25.50;99.90;;;;;;4976648;28;20022;-83
2021/07/12 10:42:45;;;;;;;1.73;1.00;;;25.30;99.90;;;;;;4994368;28;20030;-83
2021/07/12 10:45:21;;;;;;;2.53;1.15;;;25.20;99.90;;;;;;4976549;28;20522;-82
2021/07/12 10:47:59;;;;;;;2.78;1.20;;;25.20;99.90;;;;;;4993979;28;20022;-83
2021/07/12 10:50:40;;;;;;;1.98;1.20;;;25.00;99.90;;;;;;4976434;28;20034;-82
2021/07/12 10:53:15;;;;;;;4.30;1.08;;;24.60;99.90;;;;;;4993851;28;20081;-83
2021/07/12 10:56:11;;;;;;;2.38;1.20;;;24.60;99.90;;;;;;4976310;28;20033;-83
2021/07/12 10:58:39;;;;;;;7.97;1.88;;;24.70;99.90;;;;;;4975412;28;20035;-83
2021/07/12 11:01:07;;;;;;;6.15;1.50;;;24.70;99.90;;;;;;4976351;28;20019;-83
2021/07/12 11:03:58;;;;;;;4.10;1.20;;;24.90;99.90;;;;;;4976148;28;20043;-83
2021/07/12 11:06:27;;;;;;;3.88;1.02;;;25.20;99.90;;;;;;4976373;28;20478;-83
2021/07/12 11:08:57;;;;;;;3.10;1.38;;;25.50;99.90;;;;;;4993997;28;20340;-83
2021/07/12 11:11:23;;;;;;;2.55;1.20;;;25.90;99.90;;;;;;4976265;28;20394;-84
2021/07/12 11:14:01;;;;;;;2.05;1.17;;;26.50;99.90;;;;;;4993672;28;20033;-83
2021/07/12 11:16:46;;;;;;;1.80;1.15;;;27.00;99.90;;;;;;4976084;28;20112;-84
2021/07/12 11:19:31;;;;;;;1.20;1.02;;;27.10;99.90;;;;;;4993685;28;20018;-83
2021/07/12 11:22:15;;;;;;;1.83;1.00;;;27.10;99.90;;;;;;4979894;28;20034;-84
2021/07/12 11:25:13;;;;;;;1.80;1.00;;;27.70;99.90;;;;;;4979971;28;20030;-83
2021/07/12 11:27:43;;;;;;;1.40;0.90;;;28.00;99.90;;;;;;4948308;28;20162;-83
2021/07/12 11:30:29;;;;;;;1.67;1.20;;;27.90;99.90;;;;;;4979905;28;20410;-83
2021/07/12 11:32:56;;;;;;;3.33;1.13;;;27.40;99.90;;;;;;4997311;28;20096;-83
2021/07/12 11:35:22;;;;;;;2.25;1.00;;;27.10;99.90;;;;;;4979745;28;20034;-84
2021/07/12 11:37:48;;;;;;;2.75;0.82;;;27.10;99.90;;;;;;4980065;28;20060;-83
2021/07/12 11:40:15;;;;;;;2.08;1.02;;;26.90;99.90;;;;;;4979761;28;20053;-83
2021/07/12 11:42:42;;;;;;;2.40;1.10;;;27.60;99.90;;;;;;4979679;28;20121;-83
2021/07/12 11:45:10;;;;;;;1.38;1.02;;;28.40;99.90;;;;;;4997248;28;20030;-83
2021/07/12 11:47:37;;;;;;;2.10;0.80;;;28.40;99.90;;;;;;4979729;28;20023;-84
2021/07/12 11:50:09;;;;;;;2.13;1.00;;;28.80;99.90;;;;;;4997149;28;20030;-84
2021/07/12 11:52:37;;;;;;;6.47;1.00;;;29.00;99.90;;;;;;4979601;28;20078;-84
2021/07/12 11:55:11;;;;;;;5.00;0.93;;;29.20;99.90;;;;;;4996946;28;20156;-82
2021/07/12 11:57:38;;;;;;;;;;;28.90;99.90;;;;;;4979971;28;20030;-82
2021/07/12 12:00:10;;;;;;;1.35;0.75;;;28.80;99.90;;;;;;4979378;28;19964;-82
2021/07/12 12:02:38;;;;;;;1.63;1.08;;;29.20;99.90;;;;;;4979300;28;20057;-82
2021/07/12 12:05:08;;;;;;;1.83;1.10;;;29.70;99.90;;;;;;4996885;28;20030;-82
2021/07/12 12:07:39;;;;;;;3.25;1.00;;;29.90;99.90;;;;;;4979450;28;20038;-85
2021/07/12 12:10:10;;;;;;;1.50;0.90;;;29.80;99.90;;;;;;4979883;28;20034;-85
2021/07/12 12:12:38;;;;;;;1.30;0.77;;;29.80;99.90;;;;;;4979250;28;20085;-84
2021/07/12 12:15:10;;;;;;;2.03;0.95;;;29.80;99.90;;;;;;4979120;28;20181;-84
2021/07/12 12:17:40;;;;;;;1.38;0.90;;;30.10;99.90;;;;;;4979139;28;20394;-84
2021/07/12 12:20:17;;;;;;;4.85;1.10;;;29.50;98.90;;;;;;4996553;28;20018;-85
2021/07/12 12:23:15;;;;;;;1.15;0.90;;;28.10;99.90;;;;;;4996552;28;20573;-84
2021/07/12 12:25:57;;;;;;;2.22;1.10;;;27.60;99.90;;;;;;4996684;28;20156;-83
2021/07/12 12:28:39;;;;;;;3.70;1.10;;;27.50;99.90;;;;;;4996636;28;20022;-83
2021/07/12 12:31:12;;;;;;;2.58;0.80;;;27.70;99.90;;;;;;4996037;28;20026;-83
2021/07/12 12:33:53;;;;;;;4.78;0.90;;;28.40;99.90;;;;;;4978402;28;20027;-83
2021/07/12 12:36:22;;;;;;;7.60;1.20;;;29.50;99.20;;;;;;4996222;28;20058;-82
2021/07/12 12:38:58;;;;;;;1.63;0.90;;;;;;;;;;4978766;28;20430;-83
2021/07/12 12:41:36;;;;;;;2.75;1.13;;;31.20;97.20;;;;;;4978731;28;20454;-83
2021/07/12 12:44:03;;;;;;;4.13;1.00;;;31.60;96.90;;;;;;4996175;28;20018;-82
2021/07/12 12:46:30;;;;;;;2.97;0.98;;;31.80;95.80;;;;;;4978762;28;20034;-83
2021/07/12 12:48:58;;;;;;;1.08;0.98;;;31.40;95.70;;;;;;4978608;28;20026;-83
2021/07/12 12:51:31;;;;;;;4.10;1.10;;;30.40;96.40;;;;;;4978598;28;20033;-83
2021/07/12 12:54:09;;;;;;;2.85;1.00;;;29.60;97.60;;;;;;4996062;28;20022;-83
2021/07/12 12:56:37;;;;;;;1.10;1.00;;;28.60;97.90;;;;;;4978352;28;20084;-82
2021/07/12 12:59:08;;;;;;;6.75;1.23;;;28.00;99.90;;;;;;4978475;28;20022;-82